sensor_id;sensor_type;location;lat;lon;timestamp;temperature;humidity
5938;DHT22;2994;51.220;4.412;2022-11-18T00:00:26;12.82;72.28
5938;DHT22;2994;51.220;4.412;2022-11-18T00:02:52;12.75;72.61
5938;DHT22;2994;51.220;4.412;2022-11-18T00:05:18;12.76;72.74
5938;DHT22;2994;51.220;4.412;2022-11-18T00:07:43;12.78;72.70
5938;DHT22;2994;51.220;4.412;2022-11-18T00:10:09;12.69;73.13
5938;DHT22;2994;51.220;4.412;2022-11-18T00:12:34;12.75;73.27
5938;DHT22;2994;51.220;4.412;2022-11-18T00:15:18;12.74;73.37
5938;DHT22;2994;51.220;4.412;2022-11-18T00:17:50;12.75;72.91
5938;DHT22;2994;51.220;4.412;2022-11-18T00:20:17;12.81;72.73
5938;DHT22;2994;51.220;4.412;2022-11-18T00:23:03;12.69;73.09
5938;DHT22;2994;51.220;4.412;2022-11-18T00:25:28;12.72;73.07
5938;DHT22;2994;51.220;4.412;2022-11-18T00:27:59;12.81;72.74
5938;DHT22;2994;51.220;4.412;2022-11-18T00:30:24;12.75;73.30
5938;DHT22;2994;51.220;4.412;2022-11-18T00:32:50;12.71;73.09
5938;DHT22;2994;51.220;4.412;2022-11-18T00:35:15;12.75;72.84
5938;DHT22;2994;51.220;4.412;2022-11-18T00:37:41;12.78;72.61
5938;DHT22;2994;51.220;4.412;2022-11-18T00:40:07;12.78;72.60
5938;DHT22;2994;51.220;4.412;2022-11-18T00:42:32;12.76;72.72
5938;DHT22;2994;51.220;4.412;2022-11-18T00:45:17;12.72;72.68
5938;DHT22;2994;51.220;4.412;2022-11-18T00:47:42;12.76;72.59
5938;DHT22;2994;51.220;4.412;2022-11-18T00:50:08;12.77;72.77
5938;DHT22;2994;51.220;4.412;2022-11-18T00:52:34;12.73;72.54
5938;DHT22;2994;51.220;4.412;2022-11-18T00:54:59;12.67;72.72
5938;DHT22;2994;51.220;4.412;2022-11-18T00:57:25;12.72;72.51
5938;DHT22;2994;51.220;4.412;2022-11-18T00:59:50;12.73;72.51
5938;DHT22;2994;51.220;4.412;2022-11-18T01:02:16;12.73;72.47
5938;DHT22;2994;51.220;4.412;2022-11-18T01:04:44;12.77;72.42
5938;DHT22;2994;51.220;4.412;2022-11-18T01:07:10;12.77;72.35
5938;DHT22;2994;51.220;4.412;2022-11-18T01:09:35;12.78;72.26
5938;DHT22;2994;51.220;4.412;2022-11-18T01:12:01;12.70;72.71
5938;DHT22;2994;51.220;4.412;2022-11-18T01:14:45;12.70;72.67
5938;DHT22;2994;51.220;4.412;2022-11-18T01:17:10;12.70;72.69
5938;DHT22;2994;51.220;4.412;2022-11-18T01:19:36;12.73;72.65
5938;DHT22;2994;51.220;4.412;2022-11-18T01:22:01;12.79;72.24
5938;DHT22;2994;51.220;4.412;2022-11-18T01:24:33;12.71;72.58
5938;DHT22;2994;51.220;4.412;2022-11-18T01:27:02;12.75;72.40
5938;DHT22;2994;51.220;4.412;2022-11-18T01:29:28;12.60;73.03
5938;DHT22;2994;51.220;4.412;2022-11-18T01:31:53;12.69;72.62
5938;DHT22;2994;51.220;4.412;2022-11-18T01:34:21;12.73;72.48
5938;DHT22;2994;51.220;4.412;2022-11-18T01:36:46;12.72;72.37
5938;DHT22;2994;51.220;4.412;2022-11-18T01:39:12;12.71;72.43
5938;DHT22;2994;51.220;4.412;2022-11-18T01:41:37;12.73;72.19
5938;DHT22;2994;51.220;4.412;2022-11-18T01:47:09;12.75;72.19
5938;DHT22;2994;51.220;4.412;2022-11-18T01:49:35;12.73;72.26
5938;DHT22;2994;51.220;4.412;2022-11-18T01:52:01;12.69;72.41
5938;DHT22;2994;51.220;4.412;2022-11-18T01:54:39;12.59;72.63
5938;DHT22;2994;51.220;4.412;2022-11-18T01:57:10;12.60;72.61
5938;DHT22;2994;51.220;4.412;2022-11-18T01:59:40;12.65;72.48
5938;DHT22;2994;51.220;4.412;2022-11-18T02:02:09;12.63;72.45
5938;DHT22;2994;51.220;4.412;2022-11-18T02:04:36;12.62;72.48
5938;DHT22;2994;51.220;4.412;2022-11-18T02:07:02;12.57;72.66
5938;DHT22;2994;51.220;4.412;2022-11-18T02:09:28;12.53;72.74
5938;DHT22;2994;51.220;4.412;2022-11-18T02:11:54;12.48;73.00
5938;DHT22;2994;51.220;4.412;2022-11-18T02:14:26;12.52;72.77
5938;DHT22;2994;51.220;4.412;2022-11-18T02:30:58;12.46;72.43
5938;DHT22;2994;51.220;4.412;2022-11-18T02:36:08;12.41;72.56
5938;DHT22;2994;51.220;4.412;2022-11-18T02:38:41;12.46;72.23
5938;DHT22;2994;51.220;4.412;2022-11-18T02:41:12;12.49;72.09
5938;DHT22;2994;51.220;4.412;2022-11-18T02:43:51;12.33;72.81
5938;DHT22;2994;51.220;4.412;2022-11-18T02:46:23;12.38;72.57
5938;DHT22;2994;51.220;4.412;2022-11-18T02:48:51;12.41;72.34
5938;DHT22;2994;51.220;4.412;2022-11-18T02:51:22;12.41;72.28
5938;DHT22;2994;51.220;4.412;2022-11-18T02:53:50;12.37;72.43
5938;DHT22;2994;51.220;4.412;2022-11-18T02:56:16;12.34;72.51
5938;DHT22;2994;51.220;4.412;2022-11-18T02:58:43;12.32;72.58
5938;DHT22;2994;51.220;4.412;2022-11-18T03:01:22;12.22;73.06
5938;DHT22;2994;51.220;4.412;2022-11-18T03:03:48;12.27;72.75
5938;DHT22;2994;51.220;4.412;2022-11-18T03:06:37;12.23;72.81
5938;DHT22;2994;51.220;4.412;2022-11-18T03:09:27;12.22;72.76
5938;DHT22;2994;51.220;4.412;2022-11-18T03:12:13;12.21;72.74
5938;DHT22;2994;51.220;4.412;2022-11-18T03:20:11;12.04;73.57
5938;DHT22;2994;51.220;4.412;2022-11-18T03:23:07;11.97;73.76
5938;DHT22;2994;51.220;4.412;2022-11-18T03:25:48;11.97;73.72
5938;DHT22;2994;51.220;4.412;2022-11-18T03:28:35;12.02;73.79
5938;DHT22;2994;51.220;4.412;2022-11-18T03:31:23;12.03;73.67
5938;DHT22;2994;51.220;4.412;2022-11-18T03:33:57;11.99;73.81
5938;DHT22;2994;51.220;4.412;2022-11-18T03:36:27;12.00;73.76
5938;DHT22;2994;51.220;4.412;2022-11-18T03:38:58;11.90;74.13
5938;DHT22;2994;51.220;4.412;2022-11-18T03:41:25;12.02;73.62
5938;DHT22;2994;51.220;4.412;2022-11-18T03:44:01;11.99;73.77
5938;DHT22;2994;51.220;4.412;2022-11-18T03:46:33;11.96;73.93
5938;DHT22;2994;51.220;4.412;2022-11-18T03:49:01;11.98;73.85
5938;DHT22;2994;51.220;4.412;2022-11-18T03:51:34;11.97;73.85
5938;DHT22;2994;51.220;4.412;2022-11-18T03:54:16;11.94;74.01
5938;DHT22;2994;51.220;4.412;2022-11-18T03:56:46;12.01;73.55
5938;DHT22;2994;51.220;4.412;2022-11-18T03:59:23;11.91;74.10
5938;DHT22;2994;51.220;4.412;2022-11-18T04:02:02;11.91;73.90
5938;DHT22;2994;51.220;4.412;2022-11-18T04:04:32;11.86;74.38
5938;DHT22;2994;51.220;4.412;2022-11-18T04:13:25;11.97;73.75
5938;DHT22;2994;51.220;4.412;2022-11-18T04:15:52;11.78;74.58
5938;DHT22;2994;51.220;4.412;2022-11-18T04:18:18;11.90;74.31
5938;DHT22;2994;51.220;4.412;2022-11-18T04:20:43;11.93;73.96
5938;DHT22;2994;51.220;4.412;2022-11-18T04:23:08;11.90;74.18
5938;DHT22;2994;51.220;4.412;2022-11-18T04:25:34;11.90;74.22
5938;DHT22;2994;51.220;4.412;2022-11-18T04:28:00;11.91;73.89
5938;DHT22;2994;51.220;4.412;2022-11-18T04:30:26;11.88;74.09
5938;DHT22;2994;51.220;4.412;2022-11-18T04:32:51;11.88;74.18
5938;DHT22;2994;51.220;4.412;2022-11-18T04:35:17;11.84;74.31
5938;DHT22;2994;51.220;4.412;2022-11-18T04:37:42;11.88;74.11
5938;DHT22;2994;51.220;4.412;2022-11-18T04:40:08;11.90;74.02
5938;DHT22;2994;51.220;4.412;2022-11-18T04:42:34;11.79;74.44
5938;DHT22;2994;51.220;4.412;2022-11-18T04:44:59;11.79;74.28
5938;DHT22;2994;51.220;4.412;2022-11-18T04:47:24;11.84;74.15
5938;DHT22;2994;51.220;4.412;2022-11-18T04:49:50;11.79;74.38
5938;DHT22;2994;51.220;4.412;2022-11-18T04:52:15;11.81;74.32
5938;DHT22;2994;51.220;4.412;2022-11-18T04:54:41;11.75;74.56
5938;DHT22;2994;51.220;4.412;2022-11-18T04:57:07;11.73;74.60
5938;DHT22;2994;51.220;4.412;2022-11-18T04:59:32;11.74;74.41
5938;DHT22;2994;51.220;4.412;2022-11-18T05:01:58;11.83;74.00
5938;DHT22;2994;51.220;4.412;2022-11-18T05:04:28;11.81;74.14
5938;DHT22;2994;51.220;4.412;2022-11-18T05:06:57;11.74;74.31
5938;DHT22;2994;51.220;4.412;2022-11-18T05:09:23;11.76;74.20
5938;DHT22;2994;51.220;4.412;2022-11-18T05:11:49;11.73;74.53
5938;DHT22;2994;51.220;4.412;2022-11-18T05:14:33;11.75;74.54
5938;DHT22;2994;51.220;4.412;2022-11-18T05:17:00;11.71;74.67
5938;DHT22;2994;51.220;4.412;2022-11-18T05:19:26;11.67;74.96
5938;DHT22;2994;51.220;4.412;2022-11-18T05:21:52;11.73;74.38
5938;DHT22;2994;51.220;4.412;2022-11-18T05:24:17;11.71;74.45
5938;DHT22;2994;51.220;4.412;2022-11-18T05:26:43;11.76;74.13
5938;DHT22;2994;51.220;4.412;2022-11-18T05:29:09;11.71;74.47
5938;DHT22;2994;51.220;4.412;2022-11-18T05:31:34;11.56;75.00
5938;DHT22;2994;51.220;4.412;2022-11-18T05:34:00;11.60;74.84
5938;DHT22;2994;51.220;4.412;2022-11-18T05:36:25;11.61;74.74
5938;DHT22;2994;51.220;4.412;2022-11-18T05:38:51;11.51;75.08
5938;DHT22;2994;51.220;4.412;2022-11-18T05:41:17;11.61;74.63
5938;DHT22;2994;51.220;4.412;2022-11-18T05:44:01;11.69;74.28
5938;DHT22;2994;51.220;4.412;2022-11-18T05:46:28;11.60;74.56
5938;DHT22;2994;51.220;4.412;2022-11-18T05:48:55;11.47;75.32
5938;DHT22;2994;51.220;4.412;2022-11-18T05:51:21;11.61;74.71
5938;DHT22;2994;51.220;4.412;2022-11-18T05:53:49;11.67;74.34
5938;DHT22;2994;51.220;4.412;2022-11-18T05:56:19;11.49;74.93
5938;DHT22;2994;51.220;4.412;2022-11-18T05:58:46;11.62;74.54
5938;DHT22;2994;51.220;4.412;2022-11-18T06:01:13;11.60;74.81
5938;DHT22;2994;51.220;4.412;2022-11-18T06:03:40;11.70;74.12
5938;DHT22;2994;51.220;4.412;2022-11-18T06:06:07;11.67;74.30
5938;DHT22;2994;51.220;4.412;2022-11-18T06:08:50;11.64;74.34
5938;DHT22;2994;51.220;4.412;2022-11-18T06:11:18;11.60;74.53
5938;DHT22;2994;51.220;4.412;2022-11-18T06:13:48;11.56;74.51
5938;DHT22;2994;51.220;4.412;2022-11-18T06:16:18;11.68;74.27
5938;DHT22;2994;51.220;4.412;2022-11-18T06:18:45;11.57;74.68
5938;DHT22;2994;51.220;4.412;2022-11-18T06:21:10;11.55;74.76
5938;DHT22;2994;51.220;4.412;2022-11-18T06:23:38;11.53;74.86
5938;DHT22;2994;51.220;4.412;2022-11-18T06:26:04;11.57;74.64
5938;DHT22;2994;51.220;4.412;2022-11-18T06:28:34;11.48;74.95
5938;DHT22;2994;51.220;4.412;2022-11-18T06:31:00;11.57;74.59
5938;DHT22;2994;51.220;4.412;2022-11-18T06:33:25;11.57;74.54
5938;DHT22;2994;51.220;4.412;2022-11-18T06:35:51;11.57;74.47
5938;DHT22;2994;51.220;4.412;2022-11-18T06:38:16;11.53;74.71
5938;DHT22;2994;51.220;4.412;2022-11-18T06:40:42;11.54;74.57
5938;DHT22;2994;51.220;4.412;2022-11-18T06:43:09;11.62;74.28
5938;DHT22;2994;51.220;4.412;2022-11-18T06:46:01;11.58;74.33
5938;DHT22;2994;51.220;4.412;2022-11-18T06:48:46;11.57;74.18
5938;DHT22;2994;51.220;4.412;2022-11-18T06:51:11;11.56;74.44
5938;DHT22;2994;51.220;4.412;2022-11-18T06:53:37;11.62;74.27
5938;DHT22;2994;51.220;4.412;2022-11-18T06:56:04;11.67;73.93
5938;DHT22;2994;51.220;4.412;2022-11-18T06:58:29;11.49;74.70
5938;DHT22;2994;51.220;4.412;2022-11-18T07:00:55;11.59;74.19
5938;DHT22;2994;51.220;4.412;2022-11-18T07:03:20;11.48;74.54
5938;DHT22;2994;51.220;4.412;2022-11-18T07:05:46;11.54;74.28
5938;DHT22;2994;51.220;4.412;2022-11-18T07:08:11;11.51;74.41
5938;DHT22;2994;51.220;4.412;2022-11-18T07:10:36;11.53;74.47
5938;DHT22;2994;51.220;4.412;2022-11-18T07:13:02;11.56;74.32
5938;DHT22;2994;51.220;4.412;2022-11-18T07:15:27;11.51;74.48
5938;DHT22;2994;51.220;4.412;2022-11-18T07:17:53;11.52;74.36
5938;DHT22;2994;51.220;4.412;2022-11-18T07:20:18;11.56;74.22
5938;DHT22;2994;51.220;4.412;2022-11-18T07:22:43;11.55;74.24
5938;DHT22;2994;51.220;4.412;2022-11-18T07:25:09;11.59;74.06
5938;DHT22;2994;51.220;4.412;2022-11-18T07:27:34;11.58;74.12
5938;DHT22;2994;51.220;4.412;2022-11-18T07:30:00;11.53;74.29
5938;DHT22;2994;51.220;4.412;2022-11-18T07:32:25;11.38;74.93
5938;DHT22;2994;51.220;4.412;2022-11-18T07:34:50;11.52;74.44
5938;DHT22;2994;51.220;4.412;2022-11-18T07:37:16;11.53;74.13
5938;DHT22;2994;51.220;4.412;2022-11-18T07:39:41;11.52;74.18
5938;DHT22;2994;51.220;4.412;2022-11-18T07:42:08;11.46;74.60
5938;DHT22;2994;51.220;4.412;2022-11-18T07:44:33;11.52;74.42
5938;DHT22;2994;51.220;4.412;2022-11-18T07:46:59;11.53;74.57
5938;DHT22;2994;51.220;4.412;2022-11-18T07:49:24;11.60;74.19
5938;DHT22;2994;51.220;4.412;2022-11-18T07:51:49;11.61;74.22
5938;DHT22;2994;51.220;4.412;2022-11-18T07:54:15;11.69;74.01
5938;DHT22;2994;51.220;4.412;2022-11-18T07:56:41;11.71;73.96
5938;DHT22;2994;51.220;4.412;2022-11-18T07:59:07;11.74;73.90
5938;DHT22;2994;51.220;4.412;2022-11-18T08:01:32;11.71;74.02
5938;DHT22;2994;51.220;4.412;2022-11-18T08:04:07;11.63;74.48
5938;DHT22;2994;51.220;4.412;2022-11-18T08:06:34;11.76;73.92
5938;DHT22;2994;51.220;4.412;2022-11-18T08:09:02;11.81;73.83
5938;DHT22;2994;51.220;4.412;2022-11-18T08:11:28;11.87;73.57
5938;DHT22;2994;51.220;4.412;2022-11-18T08:13:53;11.92;73.43
5938;DHT22;2994;51.220;4.412;2022-11-18T08:16:21;11.88;73.66
5938;DHT22;2994;51.220;4.412;2022-11-18T08:18:48;11.92;73.49
5938;DHT22;2994;51.220;4.412;2022-11-18T08:21:15;12.01;73.27
5938;DHT22;2994;51.220;4.412;2022-11-18T08:23:42;12.10;73.01
5938;DHT22;2994;51.220;4.412;2022-11-18T08:26:12;12.00;73.37
5938;DHT22;2994;51.220;4.412;2022-11-18T08:28:42;12.05;73.24
5938;DHT22;2994;51.220;4.412;2022-11-18T08:31:10;12.07;73.19
5938;DHT22;2994;51.220;4.412;2022-11-18T08:33:36;11.98;73.61
5938;DHT22;2994;51.220;4.412;2022-11-18T08:36:06;12.02;73.43
5938;DHT22;2994;51.220;4.412;2022-11-18T08:38:32;12.15;73.03
5938;DHT22;2994;51.220;4.412;2022-11-18T08:40:57;12.17;73.03
5938;DHT22;2994;51.220;4.412;2022-11-18T08:43:23;12.15;73.16
5938;DHT22;2994;51.220;4.412;2022-11-18T08:45:48;12.23;72.87
5938;DHT22;2994;51.220;4.412;2022-11-18T08:48:14;12.26;72.77
5938;DHT22;2994;51.220;4.412;2022-11-18T08:50:42;12.28;72.69
5938;DHT22;2994;51.220;4.412;2022-11-18T08:53:07;12.21;72.98
5938;DHT22;2994;51.220;4.412;2022-11-18T08:55:33;12.31;72.64
5938;DHT22;2994;51.220;4.412;2022-11-18T08:57:58;12.33;72.61
5938;DHT22;2994;51.220;4.412;2022-11-18T09:00:24;12.32;72.74
5938;DHT22;2994;51.220;4.412;2022-11-18T09:02:49;12.40;72.50
5938;DHT22;2994;51.220;4.412;2022-11-18T09:05:15;12.40;72.63
5938;DHT22;2994;51.220;4.412;2022-11-18T09:07:40;12.38;72.70
5938;DHT22;2994;51.220;4.412;2022-11-18T09:10:06;12.40;72.74
5938;DHT22;2994;51.220;4.412;2022-11-18T09:12:32;12.43;73.12
5938;DHT22;2994;51.220;4.412;2022-11-18T09:14:58;12.52;72.35
5938;DHT22;2994;51.220;4.412;2022-11-18T09:17:23;12.50;72.53
5938;DHT22;2994;51.220;4.412;2022-11-18T09:19:48;12.53;72.74
5938;DHT22;2994;51.220;4.412;2022-11-18T09:22:14;12.63;72.23
5938;DHT22;2994;51.220;4.412;2022-11-18T09:24:39;12.63;72.22
5938;DHT22;2994;51.220;4.412;2022-11-18T09:27:06;12.43;72.94
5938;DHT22;2994;51.220;4.412;2022-11-18T09:29:31;12.59;72.37
5938;DHT22;2994;51.220;4.412;2022-11-18T09:31:57;12.58;72.53
5938;DHT22;2994;51.220;4.412;2022-11-18T09:34:26;12.63;72.24
5938;DHT22;2994;51.220;4.412;2022-11-18T09:36:52;12.71;72.11
5938;DHT22;2994;51.220;4.412;2022-11-18T09:39:20;12.77;71.96
5938;DHT22;2994;51.220;4.412;2022-11-18T09:44:56;12.84;71.89
5938;DHT22;2994;51.220;4.412;2022-11-18T09:49:55;12.86;71.86
5938;DHT22;2994;51.220;4.412;2022-11-18T09:52:35;12.89;71.80
5938;DHT22;2994;51.220;4.412;2022-11-18T09:55:13;12.85;71.78
5938;DHT22;2994;51.220;4.412;2022-11-18T09:57:48;13.00;71.27
5938;DHT22;2994;51.220;4.412;2022-11-18T10:05:21;13.01;71.26
5938;DHT22;2994;51.220;4.412;2022-11-18T10:16:32;13.08;70.99
5938;DHT22;2994;51.220;4.412;2022-11-18T10:24:31;13.09;71.16
5938;DHT22;2994;51.220;4.412;2022-11-18T10:26:59;13.05;71.31
5938;DHT22;2994;51.220;4.412;2022-11-18T10:29:25;13.11;71.19
5938;DHT22;2994;51.220;4.412;2022-11-18T10:32:02;13.09;71.22
5938;DHT22;2994;51.220;4.412;2022-11-18T10:34:29;13.15;71.02
5938;DHT22;2994;51.220;4.412;2022-11-18T10:39:50;13.23;70.78
5938;DHT22;2994;51.220;4.412;2022-11-18T10:42:29;13.21;70.97
5938;DHT22;2994;51.220;4.412;2022-11-18T10:50:38;13.23;70.94
5938;DHT22;2994;51.220;4.412;2022-11-18T10:53:31;13.29;70.67
5938;DHT22;2994;51.220;4.412;2022-11-18T10:56:07;13.32;70.68
5938;DHT22;2994;51.220;4.412;2022-11-18T10:58:36;13.29;70.77
5938;DHT22;2994;51.220;4.412;2022-11-18T11:01:25;13.32;70.75
5938;DHT22;2994;51.220;4.412;2022-11-18T11:04:03;13.36;70.57
5938;DHT22;2994;51.220;4.412;2022-11-18T11:06:36;13.34;70.49
5938;DHT22;2994;51.220;4.412;2022-11-18T11:09:04;13.40;70.42
5938;DHT22;2994;51.220;4.412;2022-11-18T11:11:36;13.37;70.69
5938;DHT22;2994;51.220;4.412;2022-11-18T11:14:12;13.37;70.90
5938;DHT22;2994;51.220;4.412;2022-11-18T11:16:46;13.32;71.22
5938;DHT22;2994;51.220;4.412;2022-11-18T11:19:14;13.33;71.19
5938;DHT22;2994;51.220;4.412;2022-11-18T11:21:42;13.37;71.09
5938;DHT22;2994;51.220;4.412;2022-11-18T11:24:10;13.36;71.19
5938;DHT22;2994;51.220;4.412;2022-11-18T11:27:04;13.34;71.48
5938;DHT22;2994;51.220;4.412;2022-11-18T11:35:20;13.41;71.52
5938;DHT22;2994;51.220;4.412;2022-11-18T11:38:09;13.34;71.81
5938;DHT22;2994;51.220;4.412;2022-11-18T11:41:05;13.27;72.24
5938;DHT22;2994;51.220;4.412;2022-11-18T11:46:23;13.27;72.48
5938;DHT22;2994;51.220;4.412;2022-11-18T11:49:13;13.29;72.64
5938;DHT22;2994;51.220;4.412;2022-11-18T11:51:51;13.22;72.93
5938;DHT22;2994;51.220;4.412;2022-11-18T12:00:19;13.12;73.61
5938;DHT22;2994;51.220;4.412;2022-11-18T12:03:16;13.16;73.77
5938;DHT22;2994;51.220;4.412;2022-11-18T12:05:44;13.06;74.27
5938;DHT22;2994;51.220;4.412;2022-11-18T12:08:22;13.12;74.17
5938;DHT22;2994;51.220;4.412;2022-11-18T12:11:20;13.06;74.46
5938;DHT22;2994;51.220;4.412;2022-11-18T12:16:55;13.11;74.51
5938;DHT22;2994;51.220;4.412;2022-11-18T12:19:23;13.11;74.49
5938;DHT22;2994;51.220;4.412;2022-11-18T12:27:03;13.18;74.33
5938;DHT22;2994;51.220;4.412;2022-11-18T12:40:40;12.90;75.92
5938;DHT22;2994;51.220;4.412;2022-11-18T12:51:47;13.10;75.07
5938;DHT22;2994;51.220;4.412;2022-11-18T12:54:27;13.05;75.44
5938;DHT22;2994;51.220;4.412;2022-11-18T12:56:54;13.08;75.37
5938;DHT22;2994;51.220;4.412;2022-11-18T12:59:35;13.04;75.58
5938;DHT22;2994;51.220;4.412;2022-11-18T13:04:34;13.22;74.96
5938;DHT22;2994;51.220;4.412;2022-11-18T13:07:01;13.15;75.19
5938;DHT22;2994;51.220;4.412;2022-11-18T13:09:29;13.20;75.11
5938;DHT22;2994;51.220;4.412;2022-11-18T13:12:00;13.11;75.51
5938;DHT22;2994;51.220;4.412;2022-11-18T13:14:29;13.14;75.42
5938;DHT22;2994;51.220;4.412;2022-11-18T13:17:37;13.25;75.04
5938;DHT22;2994;51.220;4.412;2022-11-18T13:23:24;13.20;75.28
5938;DHT22;2994;51.220;4.412;2022-11-18T13:26:22;13.19;75.33
5938;DHT22;2994;51.220;4.412;2022-11-18T13:34:22;13.24;75.19
5938;DHT22;2994;51.220;4.412;2022-11-18T13:36:53;13.23;75.30
5938;DHT22;2994;51.220;4.412;2022-11-18T13:39:30;13.21;75.39
5938;DHT22;2994;51.220;4.412;2022-11-18T13:42:12;13.18;75.56
5938;DHT22;2994;51.220;4.412;2022-11-18T13:44:38;13.23;75.47
5938;DHT22;2994;51.220;4.412;2022-11-18T13:47:25;13.10;76.25
5938;DHT22;2994;51.220;4.412;2022-11-18T13:50:05;13.18;76.00
5938;DHT22;2994;51.220;4.412;2022-11-18T13:55:27;13.09;76.52
5938;DHT22;2994;51.220;4.412;2022-11-18T13:58:06;13.15;76.41
5938;DHT22;2994;51.220;4.412;2022-11-18T14:00:38;13.21;76.19
5938;DHT22;2994;51.220;4.412;2022-11-18T14:03:31;13.17;76.63
5938;DHT22;2994;51.220;4.412;2022-11-18T14:05:58;13.17;76.68
5938;DHT22;2994;51.220;4.412;2022-11-18T14:08:35;13.21;76.73
5938;DHT22;2994;51.220;4.412;2022-11-18T14:11:01;13.15;76.98
5938;DHT22;2994;51.220;4.412;2022-11-18T14:13:33;13.14;77.06
5938;DHT22;2994;51.220;4.412;2022-11-18T14:16:02;13.14;77.11
5938;DHT22;2994;51.220;4.412;2022-11-18T14:18:35;13.14;77.27
5938;DHT22;2994;51.220;4.412;2022-11-18T14:21:03;13.07;77.53
5938;DHT22;2994;51.220;4.412;2022-11-18T14:23:35;13.14;77.27
5938;DHT22;2994;51.220;4.412;2022-11-18T14:26:03;13.17;77.21
5938;DHT22;2994;51.220;4.412;2022-11-18T14:28:31;13.14;77.49
5938;DHT22;2994;51.220;4.412;2022-11-18T14:31:02;13.08;77.62
5938;DHT22;2994;51.220;4.412;2022-11-18T14:33:35;12.99;78.15
5938;DHT22;2994;51.220;4.412;2022-11-18T14:36:14;13.05;77.88
5938;DHT22;2994;51.220;4.412;2022-11-18T14:38:46;13.10;77.62
5938;DHT22;2994;51.220;4.412;2022-11-18T14:41:14;13.01;78.11
5938;DHT22;2994;51.220;4.412;2022-11-18T14:43:41;13.06;78.01
5938;DHT22;2994;51.220;4.412;2022-11-18T14:46:19;13.09;77.89
5938;DHT22;2994;51.220;4.412;2022-11-18T14:48:45;13.08;78.01
5938;DHT22;2994;51.220;4.412;2022-11-18T14:51:13;13.02;78.27
5938;DHT22;2994;51.220;4.412;2022-11-18T14:53:38;13.08;78.01
5938;DHT22;2994;51.220;4.412;2022-11-18T14:58:39;13.16;77.72
5938;DHT22;2994;51.220;4.412;2022-11-18T15:01:04;13.10;78.09
5938;DHT22;2994;51.220;4.412;2022-11-18T15:03:32;13.14;77.94
5938;DHT22;2994;51.220;4.412;2022-11-18T15:05:57;13.11;77.98
5938;DHT22;2994;51.220;4.412;2022-11-18T15:08:23;13.14;77.93
5938;DHT22;2994;51.220;4.412;2022-11-18T15:10:48;13.14;78.01
5938;DHT22;2994;51.220;4.412;2022-11-18T15:13:14;13.19;77.70
5938;DHT22;2994;51.220;4.412;2022-11-18T15:15:39;13.21;77.84
5938;DHT22;2994;51.220;4.412;2022-11-18T15:18:04;13.25;77.73
5938;DHT22;2994;51.220;4.412;2022-11-18T15:20:30;13.27;77.56
5938;DHT22;2994;51.220;4.412;2022-11-18T15:22:55;13.27;77.44
5938;DHT22;2994;51.220;4.412;2022-11-18T15:25:21;13.29;77.43
5938;DHT22;2994;51.220;4.412;2022-11-18T15:27:46;13.26;77.57
5938;DHT22;2994;51.220;4.412;2022-11-18T15:30:12;13.25;77.54
5938;DHT22;2994;51.220;4.412;2022-11-18T15:32:40;13.22;77.67
5938;DHT22;2994;51.220;4.412;2022-11-18T15:35:05;13.23;77.72
5938;DHT22;2994;51.220;4.412;2022-11-18T15:37:31;13.24;77.70
5938;DHT22;2994;51.220;4.412;2022-11-18T15:39:56;13.29;77.62
5938;DHT22;2994;51.220;4.412;2022-11-18T15:42:22;13.29;77.64
5938;DHT22;2994;51.220;4.412;2022-11-18T15:44:47;13.32;77.50
5938;DHT22;2994;51.220;4.412;2022-11-18T15:47:13;13.31;77.46
5938;DHT22;2994;51.220;4.412;2022-11-18T15:49:38;13.33;77.47
5938;DHT22;2994;51.220;4.412;2022-11-18T15:52:09;13.31;77.55
5938;DHT22;2994;51.220;4.412;2022-11-18T15:54:44;13.34;77.40
5938;DHT22;2994;51.220;4.412;2022-11-18T15:57:09;13.33;77.44
5938;DHT22;2994;51.220;4.412;2022-11-18T15:59:48;13.34;77.50
5938;DHT22;2994;51.220;4.412;2022-11-18T16:02:22;13.32;77.53
5938;DHT22;2994;51.220;4.412;2022-11-18T16:04:48;13.32;77.39
5938;DHT22;2994;51.220;4.412;2022-11-18T16:07:13;13.32;77.37
5938;DHT22;2994;51.220;4.412;2022-11-18T16:09:42;13.36;77.18
5938;DHT22;2994;51.220;4.412;2022-11-18T16:12:26;13.34;77.07
5938;DHT22;2994;51.220;4.412;2022-11-18T16:15:10;13.30;77.21
5938;DHT22;2994;51.220;4.412;2022-11-18T16:17:54;13.35;77.20
5938;DHT22;2994;51.220;4.412;2022-11-18T16:20:20;13.36;77.30
5938;DHT22;2994;51.220;4.412;2022-11-18T16:22:45;13.35;77.36
5938;DHT22;2994;51.220;4.412;2022-11-18T16:25:12;13.36;77.18
5938;DHT22;2994;51.220;4.412;2022-11-18T16:27:37;13.34;77.31
5938;DHT22;2994;51.220;4.412;2022-11-18T16:30:03;13.33;77.23
5938;DHT22;2994;51.220;4.412;2022-11-18T16:32:28;13.35;77.23
5938;DHT22;2994;51.220;4.412;2022-11-18T16:34:54;13.35;77.18
5938;DHT22;2994;51.220;4.412;2022-11-18T16:37:19;13.31;77.23
5938;DHT22;2994;51.220;4.412;2022-11-18T16:39:45;13.30;77.34
5938;DHT22;2994;51.220;4.412;2022-11-18T16:42:10;13.26;77.61
5938;DHT22;2994;51.220;4.412;2022-11-18T16:44:36;13.29;77.45
5938;DHT22;2994;51.220;4.412;2022-11-18T16:47:02;13.30;77.45
5938;DHT22;2994;51.220;4.412;2022-11-18T16:49:28;13.29;77.36
5938;DHT22;2994;51.220;4.412;2022-11-18T16:51:54;13.26;77.62
5938;DHT22;2994;51.220;4.412;2022-11-18T16:54:26;13.24;77.76
5938;DHT22;2994;51.220;4.412;2022-11-18T16:56:53;13.26;77.34
5938;DHT22;2994;51.220;4.412;2022-11-18T16:59:24;13.10;77.76
5938;DHT22;2994;51.220;4.412;2022-11-18T17:01:50;13.19;77.62
5938;DHT22;2994;51.220;4.412;2022-11-18T17:04:17;13.21;77.74
5938;DHT22;2994;51.220;4.412;2022-11-18T17:06:43;13.12;77.92
5938;DHT22;2994;51.220;4.412;2022-11-18T17:09:15;13.15;77.86
5938;DHT22;2994;51.220;4.412;2022-11-18T17:11:41;13.06;78.24
5938;DHT22;2994;51.220;4.412;2022-11-18T17:14:07;13.09;77.92
5938;DHT22;2994;51.220;4.412;2022-11-18T17:16:32;13.06;78.18
5938;DHT22;2994;51.220;4.412;2022-11-18T17:18:59;13.07;78.13
5938;DHT22;2994;51.220;4.412;2022-11-18T17:21:26;13.15;77.81
5938;DHT22;2994;51.220;4.412;2022-11-18T17:23:52;13.09;77.97
5938;DHT22;2994;51.220;4.412;2022-11-18T17:26:21;13.15;77.72
5938;DHT22;2994;51.220;4.412;2022-11-18T17:28:47;13.04;78.21
5938;DHT22;2994;51.220;4.412;2022-11-18T17:31:17;13.07;78.22
5938;DHT22;2994;51.220;4.412;2022-11-18T17:33:43;13.08;78.16
5938;DHT22;2994;51.220;4.412;2022-11-18T17:36:12;13.03;78.34
5938;DHT22;2994;51.220;4.412;2022-11-18T17:38:39;12.85;79.23
5938;DHT22;2994;51.220;4.412;2022-11-18T17:41:07;12.80;79.64
5938;DHT22;2994;51.220;4.412;2022-11-18T17:43:32;12.75;79.89
5938;DHT22;2994;51.220;4.412;2022-11-18T17:45:59;12.89;79.13
5938;DHT22;2994;51.220;4.412;2022-11-18T17:48:26;12.95;79.01
5938;DHT22;2994;51.220;4.412;2022-11-18T17:50:52;12.82;79.47
5938;DHT22;2994;51.220;4.412;2022-11-18T17:53:19;12.79;79.56
5938;DHT22;2994;51.220;4.412;2022-11-18T17:55:45;12.90;79.15
5938;DHT22;2994;51.220;4.412;2022-11-18T17:58:11;12.97;78.77
5938;DHT22;2994;51.220;4.412;2022-11-18T18:00:37;12.84;79.46
5938;DHT22;2994;51.220;4.412;2022-11-18T18:03:04;12.71;80.25
5938;DHT22;2994;51.220;4.412;2022-11-18T18:05:29;12.86;79.49
5938;DHT22;2994;51.220;4.412;2022-11-18T18:07:56;12.87;79.56
5938;DHT22;2994;51.220;4.412;2022-11-18T18:10:22;12.91;79.31
5938;DHT22;2994;51.220;4.412;2022-11-18T18:12:48;12.85;79.60
5938;DHT22;2994;51.220;4.412;2022-11-18T18:15:32;12.94;79.17
5938;DHT22;2994;51.220;4.412;2022-11-18T18:17:58;12.97;79.17
5938;DHT22;2994;51.220;4.412;2022-11-18T18:20:24;12.99;79.14